Terminal Aerodrome Forecast
Issued by NWS

Home | Current Version | Previous Version | Text Only | Print | Product List | Glossary On
Versions: 1 2 3 4 5 6 7 8 9 10 11 12 13 14 15 16 17 18 19
000
FTUS41 KAKQ 042330
TAFPHF
TAF
KPHF 042330Z 0500/0524 21012KT P6SM SKC
     FM050200 25004KT P6SM SCT250
     FM051300 30008KT P6SM SCT250
     FM051800 31009KT 6SM HZ SCT050 SCT250=

USA.gov is the U.S. government's official web portal to all federal, state and local government web resources and services.